createdAt,value
2022-10-06T03:39:02.632Z,9.52
2022-10-06T03:42:05.897Z,10.35
2022-10-06T03:45:08.972Z,9.38
2022-10-06T03:48:11.847Z,10.18
2022-10-06T03:51:24.208Z,9.95
2022-10-06T03:54:26.823Z,10.10
2022-10-06T03:57:29.214Z,9.32
2022-10-06T04:00:31.958Z,9.73
2022-10-06T04:03:35.421Z,9.68
2022-10-06T04:06:40.136Z,10.85
2022-10-06T04:09:43.181Z,8.68
2022-10-06T04:12:46.345Z,11.27
2022-10-06T04:15:49.189Z,10.88
2022-10-06T04:18:54.463Z,11.18
2022-10-06T04:21:57.071Z,10.38
2022-10-06T04:24:59.516Z,9.77
2022-10-06T04:28:02.328Z,9.87
2022-10-06T04:31:11.601Z,8.47
2022-10-06T04:34:15.871Z,10.32
2022-10-06T04:37:18.956Z,8.90
2022-10-06T04:40:21.724Z,10.50
2022-10-06T04:43:25.008Z,9.35
2022-10-06T04:46:44.910Z,9.43
2022-10-06T04:49:47.954Z,9.57
2022-10-06T04:52:52.943Z,10.55
2022-10-06T04:56:12.717Z,10.07
2022-10-06T04:59:16.125Z,9.70
2022-10-06T05:02:20.522Z,11.07
2022-10-06T05:05:24.069Z,11.80
2022-10-06T05:08:27.842Z,10.20
2022-10-06T05:11:31.853Z,10.50
2022-10-06T05:17:36.827Z,10.27
2022-10-06T05:23:46.021Z,10.05
2022-10-06T05:26:49.056Z,10.85
2022-10-06T05:29:52.272Z,11.95
2022-10-06T05:32:54.617Z,11.48
2022-10-06T05:35:59.703Z,10.15
2022-10-06T05:39:03.766Z,10.70
2022-10-06T05:42:08.453Z,9.48
2022-10-06T05:45:11.326Z,11.77
2022-10-06T05:48:13.982Z,11.50
2022-10-06T05:51:18.317Z,12.15
2022-10-06T05:54:21.010Z,10.73
2022-10-06T05:57:24.017Z,9.85
2022-10-06T06:00:26.764Z,11.33
2022-10-06T06:03:29.379Z,10.45
2022-10-06T06:06:37.081Z,9.82
2022-10-06T06:09:40.276Z,12.88
2022-10-06T06:12:42.744Z,12.50
2022-10-06T06:16:01.923Z,11.80
2022-10-06T06:19:06.014Z,12.90
2022-10-06T06:22:09.298Z,13.35
2022-10-06T06:25:12.946Z,11.30
2022-10-06T06:28:16.163Z,11.90
2022-10-06T06:31:26.531Z,11.60
2022-10-06T06:34:30.090Z,11.25
2022-10-06T06:37:33.393Z,10.23
2022-10-06T06:40:40.677Z,11.20
2022-10-06T06:43:43.861Z,9.48
2022-10-06T06:46:49.269Z,10.52
2022-10-06T06:49:52.734Z,10.00
2022-10-06T06:52:55.463Z,9.98
2022-10-06T06:55:58.026Z,10.35
2022-10-06T06:59:02.296Z,9.45
2022-10-06T07:02:04.874Z,10.38
2022-10-06T07:05:08.303Z,11.12
2022-10-06T07:08:11.845Z,10.98
2022-10-06T07:11:17.559Z,11.27
2022-10-06T07:14:22.527Z,11.48
2022-10-06T07:17:43.681Z,12.43
2022-10-06T07:21:04.939Z,11.38
2022-10-06T07:24:27.777Z,12.05
2022-10-06T07:27:32.171Z,14.52
2022-10-06T07:30:40.459Z,13.85
2022-10-06T07:33:43.701Z,13.82
2022-10-06T07:36:48.657Z,12.90
2022-10-06T07:39:51.730Z,14.38
2022-10-06T07:42:54.477Z,15.63
2022-10-06T07:49:01.396Z,13.30
2022-10-06T07:52:04.340Z,12.98
2022-10-06T07:55:07.422Z,13.48
2022-10-06T07:58:22.432Z,12.55
2022-10-06T08:01:30.232Z,14.68
2022-10-06T08:04:33.096Z,14.90
2022-10-06T08:07:35.694Z,13.83
2022-10-06T08:10:38.581Z,15.80
2022-10-06T08:13:43.162Z,14.70
2022-10-06T08:16:46.165Z,14.02
2022-10-06T08:19:48.644Z,13.45
2022-10-06T08:22:51.286Z,12.85
2022-10-06T08:25:55.453Z,12.15
2022-10-06T08:28:59.737Z,15.55
2022-10-06T08:32:03.124Z,15.02
2022-10-06T08:35:05.879Z,13.35
2022-10-06T08:38:08.191Z,12.97
2022-10-06T08:41:25.272Z,14.57
2022-10-06T08:44:39.110Z,13.10
2022-10-06T08:47:50.713Z,13.13
2022-10-06T08:51:19.734Z,13.02
2022-10-06T08:54:33.578Z,14.63
2022-10-06T08:57:55.355Z,13.62
2022-10-06T09:01:14.219Z,13.20
2022-10-06T09:04:28.142Z,13.65
2022-10-06T09:08:07.625Z,14.13
2022-10-06T09:11:22.005Z,11.80
2022-10-06T09:14:37.511Z,13.77
2022-10-06T09:17:50.172Z,12.70
2022-10-06T09:21:02.826Z,11.77
2022-10-06T09:24:15.316Z,11.73
2022-10-06T09:27:24.317Z,12.25
2022-10-06T09:30:27.276Z,11.70
2022-10-06T09:37:03.229Z,10.00
2022-10-06T09:40:44.728Z,10.77
2022-10-06T09:43:57.361Z,8.75
2022-10-06T09:47:00.005Z,9.45
2022-10-06T09:50:16.711Z,9.73
2022-10-06T09:53:21.598Z,9.23
2022-10-06T09:56:24.190Z,9.57
2022-10-06T09:59:39.083Z,10.13
2022-10-06T10:02:42.687Z,9.18
2022-10-06T10:09:14.724Z,10.38
2022-10-06T10:12:31.064Z,9.20
2022-10-06T10:15:48.495Z,10.75
2022-10-06T10:18:51.488Z,10.00
2022-10-06T10:21:57.940Z,10.52
2022-10-06T10:25:29.592Z,11.85
2022-10-06T10:28:52.100Z,11.12
2022-10-06T10:32:02.802Z,10.18
2022-10-06T10:35:28.344Z,10.25
2022-10-06T10:38:32.276Z,9.77
2022-10-06T10:41:44.032Z,10.73
2022-10-06T10:44:54.993Z,10.40
2022-10-06T10:47:59.457Z,8.63
2022-10-06T10:51:19.522Z,10.05
2022-10-06T10:54:26.703Z,8.82
2022-10-06T10:57:43.938Z,10.75
2022-10-06T11:00:53.935Z,9.27
2022-10-06T11:03:58.718Z,10.25
2022-10-06T11:07:16.947Z,8.57
2022-10-06T11:10:50.386Z,7.62
2022-10-06T11:13:56.505Z,8.60
2022-10-06T11:17:13.297Z,7.72
2022-10-06T11:20:47.072Z,7.70
2022-10-06T11:23:57.331Z,8.25
2022-10-06T11:27:17.555Z,9.70
2022-10-06T11:30:26.368Z,8.52
2022-10-06T11:33:45.686Z,8.68
2022-10-06T11:36:51.087Z,9.00
2022-10-06T11:40:25.653Z,7.97
2022-10-06T11:43:55.271Z,7.75
2022-10-06T11:47:36.301Z,8.93
2022-10-06T11:50:42.276Z,7.97
2022-10-06T11:53:45.071Z,9.65
2022-10-06T11:56:47.938Z,8.23
2022-10-06T11:59:56.280Z,6.28
2022-10-06T12:03:33.528Z,7.78
2022-10-06T12:06:42.481Z,7.12
2022-10-06T12:09:46.176Z,7.20
2022-10-06T12:13:06.116Z,7.57
2022-10-06T12:20:13.204Z,7.53
2022-10-06T12:23:38.937Z,6.37
2022-10-06T12:26:44.553Z,7.45
2022-10-06T12:29:54.453Z,6.00
2022-10-06T12:32:59.004Z,6.85
2022-10-06T12:36:03.393Z,6.07
2022-10-06T12:39:23.737Z,6.57
2022-10-06T12:42:31.244Z,6.68
2022-10-06T12:45:34.446Z,5.68
2022-10-06T12:48:53.655Z,5.37
2022-10-06T12:51:59.677Z,5.60
2022-10-06T12:55:14.540Z,5.65
2022-10-06T12:58:28.734Z,5.97
2022-10-06T13:01:32.690Z,6.35
2022-10-06T13:04:44.886Z,6.03
2022-10-06T13:08:04.569Z,5.62
2022-10-06T13:11:29.797Z,5.80
2022-10-06T13:14:32.096Z,5.35
2022-10-06T13:17:35.314Z,4.87
2022-10-06T13:20:45.896Z,5.22
2022-10-06T13:23:49.479Z,4.82
2022-10-06T13:26:52.581Z,5.50
2022-10-06T13:30:12.566Z,5.28
2022-10-06T13:33:15.547Z,5.03
2022-10-06T13:36:19.716Z,5.10
2022-10-06T13:39:24.555Z,5.22
2022-10-06T13:42:28.814Z,6.22
2022-10-06T13:45:31.775Z,4.65
2022-10-06T13:48:34.596Z,5.60
2022-10-06T13:51:37.096Z,5.95
2022-10-06T13:55:00.485Z,4.97
2022-10-06T14:01:13.039Z,4.72
2022-10-06T14:04:20.787Z,5.10
2022-10-06T14:07:23.059Z,5.90
2022-10-06T14:10:37.795Z,5.60
2022-10-06T14:13:52.083Z,5.57
2022-10-06T14:16:55.250Z,4.97
2022-10-06T14:23:00.524Z,5.43
2022-10-06T14:26:02.882Z,5.37
2022-10-06T14:29:05.641Z,5.87
2022-10-06T14:32:13.210Z,4.70
2022-10-06T14:35:15.740Z,5.25
2022-10-06T14:38:19.215Z,4.57
2022-10-06T14:41:24.958Z,6.28
2022-10-06T14:44:27.264Z,5.25
2022-10-06T14:47:31.283Z,5.55
2022-10-06T14:50:35.021Z,6.15
2022-10-06T14:53:39.465Z,5.12
2022-10-06T14:56:42.402Z,5.28
2022-10-06T14:59:45.227Z,6.00
2022-10-06T15:02:48.094Z,5.50
2022-10-06T15:09:11.940Z,5.45
2022-10-06T15:15:17.122Z,4.37
2022-10-06T15:18:19.723Z,4.55
2022-10-06T15:21:23.733Z,5.17
2022-10-06T15:24:26.328Z,5.03
2022-10-06T15:27:47.033Z,6.57
2022-10-06T15:30:50.615Z,5.57
2022-10-06T15:33:54.775Z,4.75
2022-10-06T15:36:58.394Z,4.32
2022-10-06T15:40:01.642Z,3.45
2022-10-06T15:43:04.218Z,3.72
2022-10-06T15:46:06.571Z,3.93
2022-10-06T15:49:10.780Z,4.15
2022-10-06T15:52:13.655Z,3.65
